Airfield :
LOGIN :

Register | Disclaimer

   EN    FR    IT 

 










Legend :    VFR   Marginal VFR   IFR   Intensive IFR   Very Intensive IFR
Visi :
Ceiling :
>= 8 km
>= 3000ft
5 to 8 km
1000 to 3000 ft
1500m to 5 km
500 to 1000 ft
800 to 1500m
200 to 500 ft
< 800m
< 200 ft
Symbols :   Thunderstorms  Fog  Heavy snow  Heavy precipitations  Wind > 20 kt
SIGMETs :     Misc.  Thunderstorms  Icing  Turbulence  Mountain Waves  Volcanic Ashes







- Airport Elevation : 96 ft
- IATA code : REG


LICR - Reggio Calabria

CURRENT METAR :
  • 210850Z 20012KT 9999 FEW050 27/19 Q1015

EXPIRED METARs :
  • 210750Z 18003KT 140V220 9999 FEW050 25/19 Q1015
  • 210650Z VRB02KT CAVOK 25/20 Q1015

TAF TAF LICR
Valid from the 21 at 06:00 until the 22 at 06:00 UTC


210500Z 2106/2206 20010KT 9999 SCT025
TEMPO 2106/2110 4000 TSRA
TEMPO 2114/2118 4000 TSRA
No reported NOTAMs for that airfield.
1 SIGMET reported for the Roma FIR (LIRR) :
 
Embedded thunderstorms
LIRR SIGMET 4 VALID 210800/211000 LIIB
LIRR ROMA FIR EMBD TS FCST WI N4117 E00904 - N3959 E00842 - N3828 E00912 - N3729 E01137 - N3628 E01218 - N3629 E01631 - N3700 E01835 - N3838 E01826 - N3857 E01621 - N4054 E01358 - N4135 E01144 - N4117 E00904 TOP FL400 STNR NC=



MET'MAP, your aeronautical weather chart ! - Copyright ORBIFLY December 2007 - Disclaimer

ORBIFLY MET'MAP TEAM :

Programming & Development : Alexandra Zaïnal
Concept & Development : Baudouin d'Aumeries
Co-Development & Prog : Marc-Olivier Méhu
Technical & hardware support : Manuel Goepfert

Contact : metmap@orbifly.com




SOURCES & CREDITS :

   NOAA